createdAt,value
2019-02-25T00:00:58.496Z,86.50
2019-02-25T00:03:27.234Z,84.70
2019-02-25T00:05:56.006Z,84.50
2019-02-25T00:08:25.222Z,84.90
2019-02-25T00:10:54.221Z,85.90
2019-02-25T00:13:22.945Z,86.80
2019-02-25T00:15:51.690Z,87.70
2019-02-25T00:18:20.508Z,87.70
2019-02-25T00:20:49.463Z,86.40
2019-02-25T00:23:18.429Z,86.80
2019-02-25T00:25:47.396Z,86.90
2019-02-25T00:28:16.150Z,86.50
2019-02-25T00:30:44.861Z,86.70
2019-02-25T00:33:14.002Z,86.10
2019-02-25T00:35:42.733Z,87.00
2019-02-25T00:38:11.449Z,88.80
2019-02-25T00:40:40.197Z,88.30
2019-02-25T00:43:09.146Z,88.00
2019-02-25T00:45:37.973Z,87.40
2019-02-25T00:48:06.936Z,86.30
2019-02-25T00:50:35.909Z,87.60
2019-02-25T00:53:04.771Z,88.80
2019-02-25T00:55:33.730Z,88.40
2019-02-25T00:58:02.469Z,89.40
2019-02-25T01:00:31.205Z,89.20
2019-02-25T01:03:00.013Z,86.90
2019-02-25T01:05:28.737Z,87.10
2019-02-25T01:07:57.467Z,88.30
2019-02-25T01:10:26.454Z,88.30
2019-02-25T01:12:55.180Z,87.90
2019-02-25T01:15:23.957Z,89.30
2019-02-25T01:17:52.688Z,90.20
2019-02-25T01:20:21.391Z,90.40
2019-02-25T01:22:50.686Z,90.60
2019-02-25T01:25:19.400Z,91.00
2019-02-25T01:27:48.384Z,90.20
2019-02-25T01:30:17.374Z,90.00
2019-02-25T01:32:46.564Z,89.90
2019-02-25T01:35:15.689Z,90.80
2019-02-25T01:37:44.402Z,90.60
2019-02-25T01:40:13.291Z,90.80
2019-02-25T01:42:42.359Z,90.70
2019-02-25T01:45:11.865Z,90.60
2019-02-25T01:47:40.588Z,89.30
2019-02-25T01:50:09.899Z,89.00
2019-02-25T01:52:38.650Z,89.70
2019-02-25T01:55:08.269Z,90.30
2019-02-25T01:57:36.983Z,90.40
2019-02-25T02:00:08.615Z,90.30
2019-02-25T02:02:37.806Z,90.60
2019-02-25T02:05:06.841Z,90.60
2019-02-25T02:07:35.782Z,90.50
2019-02-25T02:10:05.121Z,90.30
2019-02-25T02:12:34.335Z,90.40
2019-02-25T02:15:03.567Z,90.30
2019-02-25T02:17:32.276Z,89.70
2019-02-25T02:20:01.001Z,90.10
2019-02-25T02:22:29.729Z,90.10
2019-02-25T02:24:58.464Z,90.20
2019-02-25T02:27:27.455Z,90.00
2019-02-25T02:29:56.207Z,90.00
2019-02-25T02:32:25.165Z,89.50
2019-02-25T02:34:54.362Z,89.10
2019-02-25T02:37:23.096Z,89.10
2019-02-25T02:39:51.824Z,89.20
2019-02-25T02:42:21.731Z,89.70
2019-02-25T02:45:01.475Z,89.70
2019-02-25T02:47:43.090Z,90.00
2019-02-25T02:50:15.240Z,89.50
2019-02-25T02:52:44.258Z,89.60
2019-02-25T02:55:13.377Z,89.80
2019-02-25T02:57:42.081Z,90.10
2019-02-25T03:00:13.647Z,90.40
2019-02-25T03:02:42.339Z,91.00
2019-02-25T03:05:12.982Z,90.70
2019-02-25T03:07:43.023Z,90.40
2019-02-25T03:10:12.890Z,90.20
2019-02-25T03:12:43.228Z,90.20
2019-02-25T03:15:14.389Z,90.00
2019-02-25T03:17:43.118Z,88.80
2019-02-25T03:20:12.683Z,88.40
2019-02-25T03:22:41.885Z,88.60
2019-02-25T03:25:12.897Z,88.00
2019-02-25T03:27:41.923Z,88.70
2019-02-25T03:30:13.689Z,89.70
2019-02-25T03:32:42.406Z,89.90
2019-02-25T03:35:11.457Z,89.80
2019-02-25T03:37:40.393Z,89.80
2019-02-25T03:40:11.087Z,90.00
2019-02-25T03:42:40.618Z,90.30
2019-02-25T03:45:11.224Z,90.40
2019-02-25T03:47:40.184Z,90.40
2019-02-25T03:50:09.268Z,90.20
2019-02-25T03:52:37.980Z,90.30
2019-02-25T03:55:08.273Z,90.70
2019-02-25T03:57:37.731Z,91.20
2019-02-25T04:00:08.971Z,90.90
2019-02-25T04:02:37.911Z,90.60
2019-02-25T04:05:07.209Z,90.70
2019-02-25T04:07:36.538Z,90.80
2019-02-25T04:10:06.152Z,91.00
2019-02-25T04:12:35.182Z,90.90
2019-02-25T04:15:05.475Z,91.40
2019-02-25T04:17:34.407Z,91.90
2019-02-25T04:20:03.601Z,92.10
2019-02-25T04:22:32.590Z,91.40
2019-02-25T04:25:01.543Z,91.10
2019-02-25T04:27:30.494Z,91.00
2019-02-25T04:29:59.480Z,91.00
2019-02-25T04:32:28.261Z,91.00
2019-02-25T04:34:57.453Z,91.00
2019-02-25T04:37:26.403Z,91.30
2019-02-25T04:39:55.377Z,91.80
2019-02-25T04:42:24.571Z,91.50
2019-02-25T04:44:53.794Z,91.60
2019-02-25T04:47:22.513Z,91.40
2019-02-25T04:49:51.736Z,91.50
2019-02-25T04:52:21.792Z,91.50
2019-02-25T04:54:51.041Z,91.50
2019-02-25T04:57:20.244Z,91.60
2019-02-25T04:59:49.442Z,91.60
2019-02-25T05:02:18.410Z,91.60
2019-02-25T05:04:47.237Z,91.70
2019-02-25T05:07:15.953Z,91.70
2019-02-25T05:09:45.225Z,91.80
2019-02-25T05:12:14.188Z,91.80
2019-02-25T05:14:43.138Z,92.10
2019-02-25T05:17:11.875Z,92.00
2019-02-25T05:19:40.813Z,91.80
2019-02-25T05:22:09.538Z,92.10
2019-02-25T05:24:38.423Z,92.50
2019-02-25T05:27:07.220Z,92.50
2019-02-25T05:29:36.165Z,92.80
2019-02-25T05:32:05.187Z,92.70
2019-02-25T05:34:34.225Z,92.60
2019-02-25T05:37:03.181Z,92.60
2019-02-25T05:39:32.391Z,92.80
2019-02-25T05:42:01.091Z,93.20
2019-02-25T05:44:29.805Z,93.30
2019-02-25T05:46:58.518Z,93.20
2019-02-25T05:49:27.481Z,93.00
2019-02-25T05:51:56.274Z,93.10
2019-02-25T05:54:25.317Z,93.50
2019-02-25T05:56:54.298Z,93.70
2019-02-25T05:59:23.230Z,93.90
2019-02-25T06:01:53.096Z,93.70
2019-02-25T06:04:21.817Z,93.50
2019-02-25T06:06:51.270Z,93.60
2019-02-25T06:09:20.780Z,93.60
2019-02-25T06:11:50.265Z,93.70
2019-02-25T06:14:19.206Z,94.00
2019-02-25T06:16:47.949Z,93.80
2019-02-25T06:19:16.954Z,93.70
2019-02-25T06:21:45.717Z,93.90
2019-02-25T06:24:14.430Z,93.90
2019-02-25T06:26:43.385Z,94.20
2019-02-25T06:29:12.084Z,94.10
2019-02-25T06:31:41.320Z,94.20
2019-02-25T06:34:10.512Z,94.30
2019-02-25T06:36:39.733Z,94.20
2019-02-25T06:39:08.817Z,94.20
2019-02-25T06:41:37.782Z,94.10
2019-02-25T06:44:06.760Z,94.10
2019-02-25T06:46:35.483Z,93.90
2019-02-25T06:49:04.440Z,94.00
2019-02-25T06:51:33.158Z,93.90
2019-02-25T06:54:02.142Z,94.00
2019-02-25T06:56:31.630Z,93.90
2019-02-25T06:59:00.412Z,94.40
2019-02-25T07:01:49.821Z,94.40
2019-02-25T07:04:25.333Z,94.30
2019-02-25T07:07:01.375Z,94.50
2019-02-25T07:09:51.592Z,94.50
2019-02-25T07:12:25.366Z,94.60
2019-02-25T07:15:00.595Z,94.30
2019-02-25T07:18:03.693Z,94.30
2019-02-25T07:21:03.392Z,94.50
2019-02-25T07:23:50.696Z,94.40
2019-02-25T07:26:54.002Z,94.50
2019-02-25T07:29:30.884Z,94.60
2019-02-25T07:32:12.994Z,94.60
2019-02-25T07:35:12.114Z,94.20
2019-02-25T07:38:01.630Z,94.00
2019-02-25T07:40:41.501Z,93.80
2019-02-25T07:43:32.621Z,93.60
2019-02-25T07:46:12.469Z,93.60
2019-02-25T07:48:57.973Z,93.80
2019-02-25T07:51:37.721Z,93.80
2019-02-25T07:54:15.937Z,94.10
2019-02-25T07:57:03.047Z,94.60
2019-02-25T07:59:38.001Z,94.20
2019-02-25T08:02:32.205Z,93.80
2019-02-25T08:05:09.686Z,93.80
2019-02-25T08:08:02.843Z,93.60
2019-02-25T08:10:44.036Z,93.60
2019-02-25T08:13:21.477Z,93.70
2019-02-25T08:16:06.517Z,93.60
2019-02-25T08:18:57.969Z,93.50
2019-02-25T08:21:56.244Z,93.30
2019-02-25T08:24:31.962Z,93.00
2019-02-25T08:27:32.156Z,93.00
2019-02-25T08:30:08.696Z,92.90
2019-02-25T08:32:50.212Z,92.00
2019-02-25T08:36:28.611Z,92.20
2019-02-25T08:39:04.968Z,92.30
2019-02-25T08:41:40.511Z,91.70
2019-02-25T08:44:28.925Z,91.40
2019-02-25T08:47:04.146Z,89.80
2019-02-25T08:49:39.633Z,90.90
2019-02-25T08:52:08.734Z,92.20
2019-02-25T08:54:37.951Z,90.90
2019-02-25T08:57:06.693Z,90.80
2019-02-25T08:59:35.670Z,90.50
2019-02-25T09:02:04.477Z,89.70
2019-02-25T09:04:33.210Z,87.20
2019-02-25T09:07:02.193Z,85.10
2019-02-25T09:09:31.400Z,82.50
2019-02-25T09:12:00.661Z,74.30
2019-02-25T09:14:48.596Z,68.50
2019-02-25T09:17:17.402Z,58.30
2019-02-25T09:19:46.357Z,55.50
2019-02-25T09:22:15.404Z,57.80
2019-02-25T09:24:44.162Z,56.00
2019-02-25T09:27:13.255Z,56.20
2019-02-25T09:29:42.011Z,52.60
2019-02-25T09:32:10.740Z,53.40
2019-02-25T09:34:39.549Z,51.10
2019-02-25T09:37:08.621Z,48.50
2019-02-25T09:39:37.589Z,49.20
2019-02-25T09:42:06.338Z,48.10
2019-02-25T09:44:35.360Z,45.80
2019-02-25T09:47:05.166Z,44.20
2019-02-25T09:49:34.493Z,43.60
2019-02-25T09:52:03.471Z,44.50
2019-02-25T09:54:32.436Z,42.00
2019-02-25T09:57:01.199Z,46.50
2019-02-25T09:59:29.929Z,45.40
2019-02-25T10:01:59.181Z,42.10
2019-02-25T10:04:28.158Z,43.80
2019-02-25T10:07:02.302Z,42.60
2019-02-25T10:09:30.297Z,43.20
2019-02-25T10:11:58.624Z,44.70
2019-02-25T10:14:28.089Z,43.30
2019-02-25T10:16:57.311Z,42.30
2019-02-25T10:19:26.026Z,40.50
2019-02-25T10:21:54.941Z,42.90
2019-02-25T10:24:43.358Z,43.60
2019-02-25T10:27:12.638Z,40.60
2019-02-25T10:29:41.384Z,41.60
2019-02-25T10:32:10.481Z,42.40
2019-02-25T10:34:39.672Z,43.40
2019-02-25T10:37:13.203Z,44.00
2019-02-25T10:39:43.352Z,44.20
2019-02-25T10:42:13.535Z,44.20
2019-02-25T10:44:43.904Z,42.80
2019-02-25T10:47:13.614Z,41.80
2019-02-25T10:49:43.686Z,43.30
2019-02-25T10:52:14.981Z,44.30
2019-02-25T10:54:44.072Z,43.00
2019-02-25T10:57:17.054Z,41.90
2019-02-25T10:59:46.179Z,43.90
2019-02-25T11:02:15.803Z,43.80
2019-02-25T11:04:45.405Z,42.20
2019-02-25T11:07:17.138Z,43.10
2019-02-25T11:10:12.068Z,44.00
2019-02-25T11:12:44.733Z,41.80
2019-02-25T11:15:15.913Z,41.00
2019-02-25T11:17:45.860Z,39.80
2019-02-25T11:20:16.575Z,41.00
2019-02-25T11:22:48.015Z,41.10
2019-02-25T11:25:17.239Z,40.60
2019-02-25T11:27:46.483Z,39.60
2019-02-25T11:30:16.594Z,39.80
2019-02-25T11:32:49.582Z,38.40
2019-02-25T11:35:21.129Z,40.80
2019-02-25T11:37:52.000Z,40.50
2019-02-25T11:40:21.339Z,41.00
2019-02-25T11:42:51.692Z,38.80
2019-02-25T11:45:21.070Z,40.90
2019-02-25T11:47:50.510Z,40.90
2019-02-25T11:50:19.590Z,37.80
2019-02-25T11:52:49.132Z,37.10
2019-02-25T11:55:19.481Z,38.10
2019-02-25T11:57:48.862Z,34.50
2019-02-25T12:02:46.984Z,37.70
2019-02-25T12:05:16.885Z,35.60
2019-02-25T12:07:45.810Z,33.70
2019-02-25T12:10:15.020Z,34.90
2019-02-25T12:12:43.807Z,34.80
2019-02-25T12:15:14.074Z,35.00
2019-02-25T12:17:42.892Z,32.30
2019-02-25T12:20:12.173Z,30.70
2019-02-25T12:22:41.126Z,29.20
2019-02-25T12:25:10.930Z,29.90
2019-02-25T12:27:39.981Z,32.30
2019-02-25T12:30:14.649Z,30.30
2019-02-25T12:32:43.501Z,30.40
2019-02-25T12:35:12.715Z,30.20
2019-02-25T12:37:42.541Z,29.20
2019-02-25T12:40:11.819Z,28.60
2019-02-25T12:43:00.205Z,29.50
2019-02-25T12:45:29.161Z,29.10
2019-02-25T12:47:58.295Z,28.70
2019-02-25T12:50:27.013Z,29.20
2019-02-25T12:52:55.987Z,28.20
2019-02-25T12:55:24.781Z,30.00
2019-02-25T12:57:54.174Z,27.70
2019-02-25T13:00:22.905Z,28.50
2019-02-25T13:02:51.925Z,28.70
2019-02-25T13:05:21.136Z,28.40
2019-02-25T13:07:50.188Z,27.80
2019-02-25T13:10:19.310Z,27.70
2019-02-25T13:12:51.305Z,28.10
2019-02-25T13:15:20.152Z,28.30
2019-02-25T13:17:51.962Z,27.40
2019-02-25T13:20:21.529Z,29.00
2019-02-25T13:22:50.744Z,29.10
2019-02-25T13:25:19.900Z,29.00
2019-02-25T13:27:48.926Z,29.20
2019-02-25T13:30:39.901Z,29.30
2019-02-25T13:33:10.658Z,29.80
2019-02-25T13:35:39.911Z,29.10
2019-02-25T13:38:09.424Z,29.90
2019-02-25T13:40:39.066Z,28.90
2019-02-25T13:43:08.368Z,28.90
2019-02-25T13:45:37.499Z,28.00
2019-02-25T13:48:06.836Z,27.10
2019-02-25T13:50:36.812Z,28.10
2019-02-25T13:53:06.825Z,28.80
2019-02-25T13:55:35.770Z,28.10
2019-02-25T13:58:05.428Z,27.30
2019-02-25T14:00:36.885Z,28.30
2019-02-25T14:03:06.162Z,27.40
2019-02-25T14:05:35.036Z,27.10
2019-02-25T14:08:04.929Z,27.00
2019-02-25T14:10:33.745Z,26.20
2019-02-25T14:13:03.314Z,27.20
2019-02-25T14:15:32.656Z,27.70
2019-02-25T14:18:01.725Z,29.60
2019-02-25T14:20:30.834Z,29.20
2019-02-25T14:23:00.677Z,29.50
2019-02-25T14:25:29.552Z,28.90
2019-02-25T14:27:58.950Z,28.90
2019-02-25T14:30:30.479Z,29.00
2019-02-25T14:32:58.679Z,28.10
2019-02-25T14:35:28.518Z,27.90
2019-02-25T14:38:05.106Z,28.00
2019-02-25T14:40:31.546Z,27.60
2019-02-25T14:43:03.264Z,27.70
2019-02-25T14:45:34.170Z,27.70
2019-02-25T14:48:05.246Z,27.10
2019-02-25T14:50:34.413Z,27.10
2019-02-25T14:53:05.902Z,26.70
2019-02-25T14:55:34.717Z,26.00
2019-02-25T14:58:05.333Z,26.20
2019-02-25T15:00:37.506Z,25.30
2019-02-25T15:03:05.399Z,26.00
2019-02-25T15:05:34.811Z,25.50
2019-02-25T15:08:04.499Z,25.20
2019-02-25T15:10:36.201Z,24.90
2019-02-25T15:13:06.080Z,23.80
2019-02-25T15:15:34.932Z,23.50
2019-02-25T15:18:04.590Z,22.90
2019-02-25T15:20:33.874Z,22.60
2019-02-25T15:23:03.839Z,22.40
2019-02-25T15:25:33.910Z,21.80
2019-02-25T15:28:07.095Z,22.30
2019-02-25T15:30:34.409Z,23.00
2019-02-25T15:33:03.554Z,22.90
2019-02-25T15:35:34.579Z,23.70
2019-02-25T15:38:02.894Z,23.90
2019-02-25T15:40:31.795Z,25.20
2019-02-25T15:43:12.552Z,25.60
2019-02-25T15:45:42.443Z,25.40
2019-02-25T15:48:14.515Z,25.20
2019-02-25T15:50:46.134Z,25.50
2019-02-25T15:53:16.147Z,25.80
2019-02-25T15:55:45.540Z,26.30
2019-02-25T15:58:14.367Z,26.80
2019-02-25T16:00:44.189Z,27.40
2019-02-25T16:03:13.707Z,27.80
2019-02-25T16:05:44.408Z,28.40
2019-02-25T16:08:16.123Z,29.70
2019-02-25T16:10:47.240Z,30.00
2019-02-25T16:13:16.514Z,31.60
2019-02-25T16:15:45.523Z,32.20
2019-02-25T16:18:14.595Z,33.50
2019-02-25T16:20:46.162Z,33.80
2019-02-25T16:23:14.220Z,34.70
2019-02-25T16:25:43.712Z,35.70
2019-02-25T16:28:14.796Z,36.20
2019-02-25T16:30:44.700Z,37.20
2019-02-25T16:33:14.553Z,37.50
2019-02-25T16:35:45.559Z,37.90
2019-02-25T16:38:14.020Z,38.60
2019-02-25T16:40:42.832Z,39.90
2019-02-25T16:43:12.636Z,39.20
2019-02-25T16:45:44.533Z,39.90
2019-02-25T16:48:13.232Z,40.50
2019-02-25T16:50:44.585Z,41.40
2019-02-25T16:53:15.486Z,41.80
2019-02-25T16:55:46.356Z,42.70
2019-02-25T16:58:14.692Z,43.30
2019-02-25T17:00:44.276Z,44.00
2019-02-25T17:03:14.293Z,44.70
2019-02-25T17:05:45.658Z,45.40
2019-02-25T17:08:18.893Z,45.80
2019-02-25T17:10:49.615Z,46.40
2019-02-25T17:13:18.851Z,46.90
2019-02-25T17:15:47.944Z,47.80
2019-02-25T17:18:17.300Z,48.50
2019-02-25T17:20:49.717Z,49.10
2019-02-25T17:23:17.729Z,49.90
2019-02-25T17:25:46.998Z,51.40
2019-02-25T17:28:17.538Z,52.40
2019-02-25T17:30:47.917Z,53.70
2019-02-25T17:33:18.289Z,55.70
2019-02-25T17:35:47.575Z,57.50
2019-02-25T17:38:18.582Z,59.70
2019-02-25T17:40:48.838Z,62.80
2019-02-25T17:43:20.087Z,65.10
2019-02-25T17:45:49.058Z,68.70
2019-02-25T17:48:37.032Z,71.70
2019-02-25T17:51:25.605Z,74.40
2019-02-25T17:53:55.826Z,77.30
2019-02-25T17:56:26.672Z,79.50
2019-02-25T17:58:55.705Z,82.00
2019-02-25T18:01:28.010Z,84.50
2019-02-25T18:04:16.645Z,85.50
2019-02-25T18:06:46.128Z,85.80
2019-02-25T18:09:16.426Z,87.60
2019-02-25T18:11:47.703Z,88.10
2019-02-25T18:14:18.043Z,89.70
2019-02-25T18:16:48.889Z,90.00
2019-02-25T18:19:20.278Z,90.20
2019-02-25T18:21:49.322Z,90.00
2019-02-25T18:24:18.122Z,90.40
2019-02-25T18:26:47.512Z,90.40
2019-02-25T18:29:18.561Z,90.90
2019-02-25T18:31:48.058Z,91.00
2019-02-25T18:34:16.836Z,90.90
2019-02-25T18:36:46.848Z,91.50
2019-02-25T18:39:17.489Z,91.80
2019-02-25T18:41:48.769Z,92.00
2019-02-25T18:44:19.547Z,92.00
2019-02-25T18:46:49.895Z,91.70
2019-02-25T18:49:19.626Z,92.10
2019-02-25T18:51:49.215Z,92.10
2019-02-25T18:54:19.116Z,91.80
2019-02-25T18:56:49.193Z,92.20
2019-02-25T18:59:20.193Z,92.50
2019-02-25T19:01:49.803Z,92.90
2019-02-25T19:04:21.736Z,93.00
2019-02-25T19:06:50.783Z,92.90
2019-02-25T19:09:23.216Z,92.90
2019-02-25T19:11:53.467Z,93.40
2019-02-25T19:14:24.109Z,93.50
2019-02-25T19:16:54.721Z,93.60
2019-02-25T19:19:27.115Z,93.60
2019-02-25T19:21:56.324Z,93.60
2019-02-25T19:24:25.982Z,93.70
2019-02-25T19:26:55.022Z,94.20
2019-02-25T19:29:25.970Z,94.10
2019-02-25T19:31:56.423Z,94.20
2019-02-25T19:34:26.104Z,94.40
2019-02-25T19:36:58.004Z,94.70
2019-02-25T19:39:26.421Z,94.60
2019-02-25T19:41:56.805Z,94.70
2019-02-25T19:44:27.780Z,94.90
2019-02-25T19:46:58.281Z,94.60
2019-02-25T19:49:27.400Z,94.70
2019-02-25T19:51:56.970Z,95.20
2019-02-25T19:54:26.641Z,95.50
2019-02-25T19:56:59.133Z,95.50
2019-02-25T19:59:31.013Z,95.50
2019-02-25T20:02:00.049Z,95.40
2019-02-25T20:04:29.018Z,95.70
2019-02-25T20:06:58.500Z,95.70
2019-02-25T20:09:27.996Z,95.80
2019-02-25T20:11:57.384Z,95.80
2019-02-25T20:14:26.309Z,95.80
2019-02-25T20:16:56.185Z,95.80
2019-02-25T20:19:25.228Z,95.80
2019-02-25T20:21:56.870Z,95.80
2019-02-25T20:24:26.269Z,95.90
2019-02-25T20:26:59.762Z,95.80
2019-02-25T20:29:26.068Z,95.70
2019-02-25T20:32:14.801Z,95.80
2019-02-25T20:34:46.375Z,96.00
2019-02-25T20:37:16.369Z,96.20
2019-02-25T20:39:47.297Z,96.30
2019-02-25T20:42:21.425Z,96.20
2019-02-25T20:44:52.895Z,96.20
2019-02-25T20:47:21.267Z,96.70
2019-02-25T20:49:53.137Z,96.70
2019-02-25T20:52:22.230Z,96.90
2019-02-25T20:54:51.592Z,96.60
2019-02-25T20:57:20.890Z,96.70
2019-02-25T20:59:53.179Z,96.50
2019-02-25T21:02:23.151Z,96.50
2019-02-25T21:04:53.432Z,96.60
2019-02-25T21:07:22.445Z,96.80
2019-02-25T21:09:51.638Z,96.80
2019-02-25T21:12:21.127Z,96.70
2019-02-25T21:14:50.346Z,97.00
2019-02-25T21:17:19.433Z,97.20
2019-02-25T21:19:48.414Z,97.20
2019-02-25T21:22:17.361Z,97.30
2019-02-25T21:24:46.405Z,97.40
2019-02-25T21:27:15.587Z,97.40
2019-02-25T21:29:44.837Z,97.50
2019-02-25T21:32:17.269Z,97.50
2019-02-25T21:34:50.093Z,97.50
2019-02-25T21:37:16.032Z,97.30
2019-02-25T21:39:45.591Z,97.40
2019-02-25T21:42:15.356Z,97.20
2019-02-25T21:44:46.434Z,97.60
2019-02-25T21:47:15.906Z,97.60
2019-02-25T21:49:44.848Z,97.60
2019-02-25T21:52:19.852Z,97.70
2019-02-25T21:54:49.081Z,97.70
2019-02-25T21:57:21.026Z,98.10
2019-02-25T21:59:50.249Z,97.90
2019-02-25T22:02:19.246Z,98.00
2019-02-25T22:04:50.158Z,97.90
2019-02-25T22:07:24.130Z,97.90
2019-02-25T22:09:49.480Z,98.10
2019-02-25T22:12:18.797Z,98.10
2019-02-25T22:14:49.745Z,98.20
2019-02-25T22:17:22.539Z,98.30
2019-02-25T22:19:51.276Z,98.30
2019-02-25T22:22:24.196Z,98.30
2019-02-25T22:24:50.808Z,98.40
2019-02-25T22:27:21.183Z,98.50
2019-02-25T22:29:50.256Z,98.40
2019-02-25T22:32:19.216Z,98.50
2019-02-25T22:34:48.239Z,98.50
2019-02-25T22:37:22.618Z,98.60
2019-02-25T22:39:52.585Z,98.70
2019-02-25T22:42:22.100Z,98.90
2019-02-25T22:44:51.713Z,98.70
2019-02-25T22:47:22.967Z,98.70
2019-02-25T22:49:51.840Z,98.90
2019-02-25T22:52:22.328Z,99.00
2019-02-25T22:54:52.254Z,99.10
2019-02-25T22:57:23.018Z,99.10
2019-02-25T22:59:52.131Z,99.10
2019-02-25T23:02:25.395Z,99.10
2019-02-25T23:04:54.095Z,99.10
2019-02-25T23:07:25.663Z,99.10
2019-02-25T23:09:54.452Z,99.10
2019-02-25T23:12:24.250Z,99.10
2019-02-25T23:14:55.940Z,99.10
2019-02-25T23:17:24.696Z,99.10
2019-02-25T23:19:53.641Z,99.10
2019-02-25T23:22:22.849Z,99.20
2019-02-25T23:24:51.586Z,99.10
2019-02-25T23:27:20.674Z,99.20
2019-02-25T23:29:49.692Z,99.30
2019-02-25T23:32:18.405Z,99.30
2019-02-25T23:34:48.017Z,99.20
2019-02-25T23:37:21.746Z,99.30
2019-02-25T23:39:51.505Z,99.40
2019-02-25T23:42:20.953Z,99.50
2019-02-25T23:44:49.661Z,99.60
2019-02-25T23:47:18.876Z,99.70
2019-02-25T23:49:48.598Z,99.60
2019-02-25T23:52:17.508Z,99.60
2019-02-25T23:54:47.808Z,99.60
2019-02-25T23:57:19.845Z,99.80
2019-02-25T23:59:48.885Z,99.80
